sensor_id;sensor_type;location;lat;lon;timestamp;P1;durP1;ratioP1;P2;durP2;ratioP2
61840;SDS011;47773;53.174;6.614;2023-07-24T00:01:12;23.42;;;9.15;;
61840;SDS011;47773;53.174;6.614;2023-07-24T00:03:37;23.45;;;9.65;;
61840;SDS011;47773;53.174;6.614;2023-07-24T00:06:03;25.67;;;10.10;;
61840;SDS011;47773;53.174;6.614;2023-07-24T00:08:29;28.98;;;9.93;;
61840;SDS011;47773;53.174;6.614;2023-07-24T00:10:55;24.58;;;9.75;;
61840;SDS011;47773;53.174;6.614;2023-07-24T00:13:20;23.08;;;9.57;;
61840;SDS011;47773;53.174;6.614;2023-07-24T00:15:46;28.35;;;9.95;;
61840;SDS011;47773;53.174;6.614;2023-07-24T00:18:12;27.88;;;9.88;;
61840;SDS011;47773;53.174;6.614;2023-07-24T00:20:37;21.20;;;9.10;;
61840;SDS011;47773;53.174;6.614;2023-07-24T00:23:03;24.25;;;10.63;;
61840;SDS011;47773;53.174;6.614;2023-07-24T00:25:29;23.45;;;8.93;;
61840;SDS011;47773;53.174;6.614;2023-07-24T00:27:55;26.92;;;9.65;;
61840;SDS011;47773;53.174;6.614;2023-07-24T00:30:20;26.00;;;9.75;;
61840;SDS011;47773;53.174;6.614;2023-07-24T00:32:46;23.58;;;8.93;;
61840;SDS011;47773;53.174;6.614;2023-07-24T00:35:12;25.38;;;9.18;;
61840;SDS011;47773;53.174;6.614;2023-07-24T00:37:37;20.75;;;8.48;;
61840;SDS011;47773;53.174;6.614;2023-07-24T00:40:03;22.38;;;9.60;;
61840;SDS011;47773;53.174;6.614;2023-07-24T00:42:29;26.80;;;9.45;;
61840;SDS011;47773;53.174;6.614;2023-07-24T00:44:55;23.38;;;10.05;;
61840;SDS011;47773;53.174;6.614;2023-07-24T00:47:21;25.15;;;9.48;;
61840;SDS011;47773;53.174;6.614;2023-07-24T00:49:47;24.60;;;8.82;;
61840;SDS011;47773;53.174;6.614;2023-07-24T00:52:14;28.75;;;10.70;;
61840;SDS011;47773;53.174;6.614;2023-07-24T00:54:40;24.33;;;9.23;;
61840;SDS011;47773;53.174;6.614;2023-07-24T00:57:07;27.23;;;10.07;;
61840;SDS011;47773;53.174;6.614;2023-07-24T00:59:33;26.48;;;9.55;;
61840;SDS011;47773;53.174;6.614;2023-07-24T01:04:28;26.23;;;10.23;;
61840;SDS011;47773;53.174;6.614;2023-07-24T01:06:54;27.08;;;10.32;;
61840;SDS011;47773;53.174;6.614;2023-07-24T01:09:20;27.83;;;10.30;;
61840;SDS011;47773;53.174;6.614;2023-07-24T01:11:47;23.80;;;9.73;;
61840;SDS011;47773;53.174;6.614;2023-07-24T01:16:56;27.10;;;9.63;;
61840;SDS011;47773;53.174;6.614;2023-07-24T01:19:32;23.85;;;10.07;;
61840;SDS011;47773;53.174;6.614;2023-07-24T01:22:07;30.00;;;10.85;;
61840;SDS011;47773;53.174;6.614;2023-07-24T01:27:47;30.77;;;11.30;;
61840;SDS011;47773;53.174;6.614;2023-07-24T01:30:16;31.80;;;11.52;;
61840;SDS011;47773;53.174;6.614;2023-07-24T01:32:43;33.17;;;12.13;;
61840;SDS011;47773;53.174;6.614;2023-07-24T01:35:09;29.75;;;12.68;;
61840;SDS011;47773;53.174;6.614;2023-07-24T01:37:35;30.90;;;12.23;;
61840;SDS011;47773;53.174;6.614;2023-07-24T01:40:04;28.52;;;12.57;;
61840;SDS011;47773;53.174;6.614;2023-07-24T01:42:32;31.00;;;13.40;;
61840;SDS011;47773;53.174;6.614;2023-07-24T01:44:58;31.02;;;13.45;;
61840;SDS011;47773;53.174;6.614;2023-07-24T01:47:24;35.63;;;14.43;;
61840;SDS011;47773;53.174;6.614;2023-07-24T01:49:50;30.38;;;14.57;;
61840;SDS011;47773;53.174;6.614;2023-07-24T01:52:17;33.75;;;15.98;;
61840;SDS011;47773;53.174;6.614;2023-07-24T01:54:43;32.00;;;15.20;;
61840;SDS011;47773;53.174;6.614;2023-07-24T01:57:08;31.48;;;15.65;;
61840;SDS011;47773;53.174;6.614;2023-07-24T01:59:34;33.00;;;14.77;;
61840;SDS011;47773;53.174;6.614;2023-07-24T02:02:00;31.70;;;14.88;;
61840;SDS011;47773;53.174;6.614;2023-07-24T02:04:25;29.02;;;14.18;;
61840;SDS011;47773;53.174;6.614;2023-07-24T02:06:51;41.22;;;16.20;;
61840;SDS011;47773;53.174;6.614;2023-07-24T02:09:20;31.40;;;13.27;;
61840;SDS011;47773;53.174;6.614;2023-07-24T02:11:46;34.05;;;15.38;;
61840;SDS011;47773;53.174;6.614;2023-07-24T02:14:12;31.33;;;15.77;;
61840;SDS011;47773;53.174;6.614;2023-07-24T02:16:39;35.50;;;16.77;;
61840;SDS011;47773;53.174;6.614;2023-07-24T02:19:05;29.23;;;15.18;;
61840;SDS011;47773;53.174;6.614;2023-07-24T02:21:30;32.55;;;15.48;;
61840;SDS011;47773;53.174;6.614;2023-07-24T02:23:56;37.97;;;16.00;;
61840;SDS011;47773;53.174;6.614;2023-07-24T02:26:22;34.47;;;15.90;;
61840;SDS011;47773;53.174;6.614;2023-07-24T02:28:48;33.08;;;16.50;;
61840;SDS011;47773;53.174;6.614;2023-07-24T02:31:13;33.25;;;16.33;;
61840;SDS011;47773;53.174;6.614;2023-07-24T02:33:39;37.67;;;16.20;;
61840;SDS011;47773;53.174;6.614;2023-07-24T02:36:05;35.03;;;16.15;;
61840;SDS011;47773;53.174;6.614;2023-07-24T02:38:31;35.42;;;16.00;;
61840;SDS011;47773;53.174;6.614;2023-07-24T02:40:56;34.85;;;15.50;;
61840;SDS011;47773;53.174;6.614;2023-07-24T02:43:22;32.83;;;15.70;;
61840;SDS011;47773;53.174;6.614;2023-07-24T02:45:48;33.17;;;15.43;;
61840;SDS011;47773;53.174;6.614;2023-07-24T02:48:13;32.72;;;15.93;;
61840;SDS011;47773;53.174;6.614;2023-07-24T02:50:39;27.35;;;14.35;;
61840;SDS011;47773;53.174;6.614;2023-07-24T02:53:05;31.83;;;15.30;;
61840;SDS011;47773;53.174;6.614;2023-07-24T02:55:30;42.78;;;15.55;;
61840;SDS011;47773;53.174;6.614;2023-07-24T02:57:56;31.90;;;14.82;;
61840;SDS011;47773;53.174;6.614;2023-07-24T03:00:22;31.70;;;14.25;;
61840;SDS011;47773;53.174;6.614;2023-07-24T03:02:48;33.60;;;15.52;;
61840;SDS011;47773;53.174;6.614;2023-07-24T03:05:14;31.65;;;15.00;;
61840;SDS011;47773;53.174;6.614;2023-07-24T03:07:39;29.40;;;14.18;;
61840;SDS011;47773;53.174;6.614;2023-07-24T03:10:05;32.80;;;14.45;;
61840;SDS011;47773;53.174;6.614;2023-07-24T03:12:32;35.03;;;16.17;;
61840;SDS011;47773;53.174;6.614;2023-07-24T03:14:58;31.55;;;14.25;;
61840;SDS011;47773;53.174;6.614;2023-07-24T03:17:24;35.85;;;15.30;;
61840;SDS011;47773;53.174;6.614;2023-07-24T03:19:49;27.95;;;13.88;;
61840;SDS011;47773;53.174;6.614;2023-07-24T03:22:15;29.10;;;14.00;;
61840;SDS011;47773;53.174;6.614;2023-07-24T03:24:41;32.28;;;15.23;;
61840;SDS011;47773;53.174;6.614;2023-07-24T03:27:07;28.58;;;13.93;;
61840;SDS011;47773;53.174;6.614;2023-07-24T03:29:32;31.10;;;13.98;;
61840;SDS011;47773;53.174;6.614;2023-07-24T03:31:58;28.13;;;14.25;;
61840;SDS011;47773;53.174;6.614;2023-07-24T03:34:24;37.80;;;14.18;;
61840;SDS011;47773;53.174;6.614;2023-07-24T03:36:49;35.03;;;13.30;;
61840;SDS011;47773;53.174;6.614;2023-07-24T03:39:15;28.67;;;12.65;;
61840;SDS011;47773;53.174;6.614;2023-07-24T03:41:41;25.58;;;13.02;;
61840;SDS011;47773;53.174;6.614;2023-07-24T03:44:07;23.65;;;12.23;;
61840;SDS011;47773;53.174;6.614;2023-07-24T03:46:33;29.77;;;13.40;;
61840;SDS011;47773;53.174;6.614;2023-07-24T03:49:00;31.10;;;13.65;;
61840;SDS011;47773;53.174;6.614;2023-07-24T03:51:25;27.90;;;13.23;;
61840;SDS011;47773;53.174;6.614;2023-07-24T03:53:51;26.65;;;12.85;;
61840;SDS011;47773;53.174;6.614;2023-07-24T03:56:17;31.00;;;14.13;;
61840;SDS011;47773;53.174;6.614;2023-07-24T03:58:43;27.55;;;13.77;;
61840;SDS011;47773;53.174;6.614;2023-07-24T04:01:08;32.80;;;14.07;;
61840;SDS011;47773;53.174;6.614;2023-07-24T04:03:34;30.70;;;14.13;;
61840;SDS011;47773;53.174;6.614;2023-07-24T04:06:00;28.10;;;15.00;;
61840;SDS011;47773;53.174;6.614;2023-07-24T04:08:26;30.05;;;14.25;;
61840;SDS011;47773;53.174;6.614;2023-07-24T04:10:52;42.22;;;15.13;;
61840;SDS011;47773;53.174;6.614;2023-07-24T04:13:18;32.88;;;14.30;;
61840;SDS011;47773;53.174;6.614;2023-07-24T04:15:44;29.10;;;14.45;;
61840;SDS011;47773;53.174;6.614;2023-07-24T04:18:10;36.13;;;15.07;;
61840;SDS011;47773;53.174;6.614;2023-07-24T04:20:36;33.35;;;15.18;;
61840;SDS011;47773;53.174;6.614;2023-07-24T04:23:02;29.35;;;14.13;;
61840;SDS011;47773;53.174;6.614;2023-07-24T04:25:28;30.52;;;14.25;;
61840;SDS011;47773;53.174;6.614;2023-07-24T04:27:54;31.42;;;15.18;;
61840;SDS011;47773;53.174;6.614;2023-07-24T04:30:20;34.13;;;16.00;;
61840;SDS011;47773;53.174;6.614;2023-07-24T04:32:45;26.10;;;13.88;;
61840;SDS011;47773;53.174;6.614;2023-07-24T04:35:11;33.80;;;16.20;;
61840;SDS011;47773;53.174;6.614;2023-07-24T04:37:37;32.95;;;15.02;;
61840;SDS011;47773;53.174;6.614;2023-07-24T04:40:03;32.22;;;15.57;;
61840;SDS011;47773;53.174;6.614;2023-07-24T04:42:30;30.52;;;15.68;;
61840;SDS011;47773;53.174;6.614;2023-07-24T04:44:56;39.20;;;15.52;;
61840;SDS011;47773;53.174;6.614;2023-07-24T04:47:21;33.60;;;16.75;;
61840;SDS011;47773;53.174;6.614;2023-07-24T04:49:47;30.55;;;16.10;;
61840;SDS011;47773;53.174;6.614;2023-07-24T04:52:13;33.88;;;15.60;;
61840;SDS011;47773;53.174;6.614;2023-07-24T04:54:39;31.25;;;14.77;;
61840;SDS011;47773;53.174;6.614;2023-07-24T04:57:04;34.10;;;15.73;;
61840;SDS011;47773;53.174;6.614;2023-07-24T04:59:30;31.33;;;15.15;;
61840;SDS011;47773;53.174;6.614;2023-07-24T05:01:56;27.77;;;14.80;;
61840;SDS011;47773;53.174;6.614;2023-07-24T05:04:22;32.20;;;15.18;;
61840;SDS011;47773;53.174;6.614;2023-07-24T05:06:47;36.22;;;14.63;;
61840;SDS011;47773;53.174;6.614;2023-07-24T05:09:13;33.70;;;14.30;;
61840;SDS011;47773;53.174;6.614;2023-07-24T05:11:39;35.42;;;15.77;;
61840;SDS011;47773;53.174;6.614;2023-07-24T05:14:07;31.55;;;15.40;;
61840;SDS011;47773;53.174;6.614;2023-07-24T05:16:32;29.33;;;15.23;;
61840;SDS011;47773;53.174;6.614;2023-07-24T05:18:58;36.20;;;15.43;;
61840;SDS011;47773;53.174;6.614;2023-07-24T05:21:24;27.95;;;15.30;;
61840;SDS011;47773;53.174;6.614;2023-07-24T05:23:49;30.75;;;15.98;;
61840;SDS011;47773;53.174;6.614;2023-07-24T05:26:15;32.67;;;15.57;;
61840;SDS011;47773;53.174;6.614;2023-07-24T05:28:41;32.35;;;15.25;;
61840;SDS011;47773;53.174;6.614;2023-07-24T05:31:06;39.45;;;15.38;;
61840;SDS011;47773;53.174;6.614;2023-07-24T05:33:33;34.63;;;15.57;;
61840;SDS011;47773;53.174;6.614;2023-07-24T05:35:59;33.53;;;15.73;;
61840;SDS011;47773;53.174;6.614;2023-07-24T05:38:28;34.13;;;15.63;;
61840;SDS011;47773;53.174;6.614;2023-07-24T05:40:55;31.55;;;15.30;;
61840;SDS011;47773;53.174;6.614;2023-07-24T05:43:21;40.03;;;15.90;;
61840;SDS011;47773;53.174;6.614;2023-07-24T05:45:46;33.55;;;15.35;;
61840;SDS011;47773;53.174;6.614;2023-07-24T05:48:12;32.67;;;16.70;;
61840;SDS011;47773;53.174;6.614;2023-07-24T05:50:38;34.47;;;15.73;;
61840;SDS011;47773;53.174;6.614;2023-07-24T05:53:03;27.60;;;14.48;;
61840;SDS011;47773;53.174;6.614;2023-07-24T05:55:29;32.42;;;15.35;;
61840;SDS011;47773;53.174;6.614;2023-07-24T05:57:55;32.00;;;15.05;;
61840;SDS011;47773;53.174;6.614;2023-07-24T06:00:20;29.02;;;14.75;;
61840;SDS011;47773;53.174;6.614;2023-07-24T06:02:46;32.92;;;14.32;;
61840;SDS011;47773;53.174;6.614;2023-07-24T06:05:12;31.42;;;15.23;;
61840;SDS011;47773;53.174;6.614;2023-07-24T06:07:37;27.65;;;14.50;;
61840;SDS011;47773;53.174;6.614;2023-07-24T06:10:03;35.13;;;16.00;;
61840;SDS011;47773;53.174;6.614;2023-07-24T06:12:29;35.25;;;16.33;;
61840;SDS011;47773;53.174;6.614;2023-07-24T06:14:55;35.35;;;14.50;;
61840;SDS011;47773;53.174;6.614;2023-07-24T06:17:20;30.63;;;14.40;;
61840;SDS011;47773;53.174;6.614;2023-07-24T06:19:46;38.60;;;16.13;;
61840;SDS011;47773;53.174;6.614;2023-07-24T06:22:12;33.55;;;15.20;;
61840;SDS011;47773;53.174;6.614;2023-07-24T06:24:38;33.58;;;15.77;;
61840;SDS011;47773;53.174;6.614;2023-07-24T06:27:04;27.85;;;13.98;;
61840;SDS011;47773;53.174;6.614;2023-07-24T06:29:31;32.67;;;15.30;;
61840;SDS011;47773;53.174;6.614;2023-07-24T06:31:57;33.25;;;15.05;;
61840;SDS011;47773;53.174;6.614;2023-07-24T06:34:23;30.63;;;15.10;;
61840;SDS011;47773;53.174;6.614;2023-07-24T06:36:49;41.75;;;15.90;;
61840;SDS011;47773;53.174;6.614;2023-07-24T06:39:15;33.42;;;14.80;;
61840;SDS011;47773;53.174;6.614;2023-07-24T06:41:40;33.42;;;15.52;;
61840;SDS011;47773;53.174;6.614;2023-07-24T06:44:06;31.80;;;14.40;;
61840;SDS011;47773;53.174;6.614;2023-07-24T06:46:32;38.35;;;15.73;;
61840;SDS011;47773;53.174;6.614;2023-07-24T06:48:58;32.45;;;15.52;;
61840;SDS011;47773;53.174;6.614;2023-07-24T06:51:23;41.72;;;15.60;;
61840;SDS011;47773;53.174;6.614;2023-07-24T06:53:49;28.92;;;15.25;;
61840;SDS011;47773;53.174;6.614;2023-07-24T06:56:15;36.17;;;15.77;;
61840;SDS011;47773;53.174;6.614;2023-07-24T06:58:40;35.95;;;16.90;;
61840;SDS011;47773;53.174;6.614;2023-07-24T07:01:06;34.95;;;16.25;;
61840;SDS011;47773;53.174;6.614;2023-07-24T07:03:32;39.38;;;16.27;;
61840;SDS011;47773;53.174;6.614;2023-07-24T07:06:01;37.88;;;15.63;;
61840;SDS011;47773;53.174;6.614;2023-07-24T07:08:28;45.50;;;15.65;;
61840;SDS011;47773;53.174;6.614;2023-07-24T07:10:58;32.13;;;15.45;;
61840;SDS011;47773;53.174;6.614;2023-07-24T07:13:25;39.45;;;15.80;;
61840;SDS011;47773;53.174;6.614;2023-07-24T07:15:51;33.08;;;15.15;;
61840;SDS011;47773;53.174;6.614;2023-07-24T07:18:17;39.03;;;14.82;;
61840;SDS011;47773;53.174;6.614;2023-07-24T07:20:49;36.17;;;15.05;;
61840;SDS011;47773;53.174;6.614;2023-07-24T07:23:16;38.58;;;14.38;;
61840;SDS011;47773;53.174;6.614;2023-07-24T07:25:43;33.28;;;15.13;;
61840;SDS011;47773;53.174;6.614;2023-07-24T07:28:13;32.72;;;14.73;;
61840;SDS011;47773;53.174;6.614;2023-07-24T07:30:40;33.83;;;14.27;;
61840;SDS011;47773;53.174;6.614;2023-07-24T07:33:06;36.30;;;13.32;;
61840;SDS011;47773;53.174;6.614;2023-07-24T07:35:32;39.20;;;16.10;;
61840;SDS011;47773;53.174;6.614;2023-07-24T07:37:59;38.85;;;15.75;;
61840;SDS011;47773;53.174;6.614;2023-07-24T07:40:25;33.88;;;14.80;;
61840;SDS011;47773;53.174;6.614;2023-07-24T07:42:54;39.00;;;14.43;;
61840;SDS011;47773;53.174;6.614;2023-07-24T07:45:22;36.03;;;14.25;;
61840;SDS011;47773;53.174;6.614;2023-07-24T07:47:48;39.63;;;16.30;;
61840;SDS011;47773;53.174;6.614;2023-07-24T07:50:14;38.40;;;16.02;;
61840;SDS011;47773;53.174;6.614;2023-07-24T07:52:40;39.97;;;15.23;;
61840;SDS011;47773;53.174;6.614;2023-07-24T07:55:06;41.80;;;15.20;;
61840;SDS011;47773;53.174;6.614;2023-07-24T07:57:35;35.65;;;15.35;;
61840;SDS011;47773;53.174;6.614;2023-07-24T08:00:01;32.38;;;14.98;;
61840;SDS011;47773;53.174;6.614;2023-07-24T08:02:33;36.90;;;15.55;;
61840;SDS011;47773;53.174;6.614;2023-07-24T08:04:59;46.83;;;16.15;;
61840;SDS011;47773;53.174;6.614;2023-07-24T08:07:25;35.65;;;14.52;;
61840;SDS011;47773;53.174;6.614;2023-07-24T08:09:50;44.15;;;15.05;;
61840;SDS011;47773;53.174;6.614;2023-07-24T08:12:16;45.75;;;14.90;;
61840;SDS011;47773;53.174;6.614;2023-07-24T08:14:42;39.75;;;14.88;;
61840;SDS011;47773;53.174;6.614;2023-07-24T08:17:08;34.75;;;14.30;;
61840;SDS011;47773;53.174;6.614;2023-07-24T08:19:33;45.67;;;15.43;;
61840;SDS011;47773;53.174;6.614;2023-07-24T08:21:59;36.67;;;14.70;;
61840;SDS011;47773;53.174;6.614;2023-07-24T08:24:25;44.83;;;15.10;;
61840;SDS011;47773;53.174;6.614;2023-07-24T08:26:51;33.45;;;13.95;;
61840;SDS011;47773;53.174;6.614;2023-07-24T08:29:16;34.78;;;12.70;;
61840;SDS011;47773;53.174;6.614;2023-07-24T08:31:42;40.90;;;14.98;;
61840;SDS011;47773;53.174;6.614;2023-07-24T08:34:08;38.58;;;13.50;;
61840;SDS011;47773;53.174;6.614;2023-07-24T08:36:33;39.78;;;13.52;;
61840;SDS011;47773;53.174;6.614;2023-07-24T08:38:59;42.35;;;14.60;;
61840;SDS011;47773;53.174;6.614;2023-07-24T08:41:25;39.95;;;14.15;;
61840;SDS011;47773;53.174;6.614;2023-07-24T08:43:50;35.38;;;14.32;;
61840;SDS011;47773;53.174;6.614;2023-07-24T08:46:17;39.03;;;14.55;;
61840;SDS011;47773;53.174;6.614;2023-07-24T08:48:44;46.50;;;15.07;;
61840;SDS011;47773;53.174;6.614;2023-07-24T08:51:10;41.80;;;15.18;;
61840;SDS011;47773;53.174;6.614;2023-07-24T08:53:37;47.17;;;14.82;;
61840;SDS011;47773;53.174;6.614;2023-07-24T08:56:05;41.88;;;15.10;;
61840;SDS011;47773;53.174;6.614;2023-07-24T08:58:32;31.85;;;12.30;;
61840;SDS011;47773;53.174;6.614;2023-07-24T09:00:59;39.53;;;15.70;;
61840;SDS011;47773;53.174;6.614;2023-07-24T09:03:27;34.55;;;14.32;;
61840;SDS011;47773;53.174;6.614;2023-07-24T09:05:53;43.22;;;15.35;;
61840;SDS011;47773;53.174;6.614;2023-07-24T09:08:31;40.97;;;15.82;;
61840;SDS011;47773;53.174;6.614;2023-07-24T09:10:58;45.65;;;15.65;;
61840;SDS011;47773;53.174;6.614;2023-07-24T09:13:24;44.72;;;16.38;;
61840;SDS011;47773;53.174;6.614;2023-07-24T09:15:50;45.47;;;16.52;;
61840;SDS011;47773;53.174;6.614;2023-07-24T09:18:16;39.72;;;16.85;;
61840;SDS011;47773;53.174;6.614;2023-07-24T09:20:43;48.30;;;16.80;;
61840;SDS011;47773;53.174;6.614;2023-07-24T09:23:10;38.22;;;16.02;;
61840;SDS011;47773;53.174;6.614;2023-07-24T09:25:37;41.50;;;16.85;;
61840;SDS011;47773;53.174;6.614;2023-07-24T09:30:41;45.78;;;17.25;;
61840;SDS011;47773;53.174;6.614;2023-07-24T09:33:16;40.35;;;16.73;;
61840;SDS011;47773;53.174;6.614;2023-07-24T09:35:42;53.55;;;17.58;;
61840;SDS011;47773;53.174;6.614;2023-07-24T09:38:09;44.80;;;17.80;;
61840;SDS011;47773;53.174;6.614;2023-07-24T09:40:42;45.42;;;17.88;;
61840;SDS011;47773;53.174;6.614;2023-07-24T09:43:19;44.15;;;16.77;;
61840;SDS011;47773;53.174;6.614;2023-07-24T09:45:47;45.97;;;17.65;;
61840;SDS011;47773;53.174;6.614;2023-07-24T09:48:14;40.78;;;16.27;;
61840;SDS011;47773;53.174;6.614;2023-07-24T09:50:42;41.88;;;16.48;;
61840;SDS011;47773;53.174;6.614;2023-07-24T09:53:17;41.28;;;16.73;;
61840;SDS011;47773;53.174;6.614;2023-07-24T09:55:52;32.53;;;14.50;;
61840;SDS011;47773;53.174;6.614;2023-07-24T09:58:23;46.42;;;16.00;;
61840;SDS011;47773;53.174;6.614;2023-07-24T10:00:51;36.78;;;16.08;;
61840;SDS011;47773;53.174;6.614;2023-07-24T10:03:18;39.17;;;16.00;;
61840;SDS011;47773;53.174;6.614;2023-07-24T10:05:45;35.75;;;15.82;;
61840;SDS011;47773;53.174;6.614;2023-07-24T10:08:11;41.35;;;15.70;;
61840;SDS011;47773;53.174;6.614;2023-07-24T10:10:41;34.15;;;14.82;;
61840;SDS011;47773;53.174;6.614;2023-07-24T10:13:08;32.95;;;14.65;;
61840;SDS011;47773;53.174;6.614;2023-07-24T10:15:36;37.67;;;15.55;;
61840;SDS011;47773;53.174;6.614;2023-07-24T10:18:04;33.00;;;15.18;;
61840;SDS011;47773;53.174;6.614;2023-07-24T10:20:34;39.92;;;13.85;;
61840;SDS011;47773;53.174;6.614;2023-07-24T10:23:04;33.55;;;13.13;;
61840;SDS011;47773;53.174;6.614;2023-07-24T10:25:31;36.75;;;13.63;;
61840;SDS011;47773;53.174;6.614;2023-07-24T10:28:01;37.70;;;14.82;;
61840;SDS011;47773;53.174;6.614;2023-07-24T10:30:32;37.28;;;14.35;;
61840;SDS011;47773;53.174;6.614;2023-07-24T10:35:42;37.90;;;14.73;;
61840;SDS011;47773;53.174;6.614;2023-07-24T10:38:11;35.47;;;13.50;;
61840;SDS011;47773;53.174;6.614;2023-07-24T10:40:39;28.02;;;13.00;;
61840;SDS011;47773;53.174;6.614;2023-07-24T10:43:09;36.40;;;13.10;;
61840;SDS011;47773;53.174;6.614;2023-07-24T10:45:39;29.98;;;12.48;;
61840;SDS011;47773;53.174;6.614;2023-07-24T10:48:06;26.17;;;13.27;;
61840;SDS011;47773;53.174;6.614;2023-07-24T10:50:42;34.75;;;13.27;;
61840;SDS011;47773;53.174;6.614;2023-07-24T10:53:13;39.92;;;12.82;;
61840;SDS011;47773;53.174;6.614;2023-07-24T10:55:41;31.70;;;12.93;;
61840;SDS011;47773;53.174;6.614;2023-07-24T10:58:11;32.33;;;13.07;;
61840;SDS011;47773;53.174;6.614;2023-07-24T11:00:38;30.77;;;13.32;;
61840;SDS011;47773;53.174;6.614;2023-07-24T11:03:07;35.40;;;13.70;;
61840;SDS011;47773;53.174;6.614;2023-07-24T11:05:38;31.33;;;12.98;;
61840;SDS011;47773;53.174;6.614;2023-07-24T11:08:11;28.67;;;12.15;;
61840;SDS011;47773;53.174;6.614;2023-07-24T11:10:48;33.90;;;12.07;;
61840;SDS011;47773;53.174;6.614;2023-07-24T11:13:15;23.65;;;11.80;;
61840;SDS011;47773;53.174;6.614;2023-07-24T11:15:41;28.83;;;13.00;;
61840;SDS011;47773;53.174;6.614;2023-07-24T11:18:07;23.05;;;10.60;;
61840;SDS011;47773;53.174;6.614;2023-07-24T11:23:13;26.23;;;11.30;;
61840;SDS011;47773;53.174;6.614;2023-07-24T11:25:40;27.00;;;10.05;;
61840;SDS011;47773;53.174;6.614;2023-07-24T11:28:06;26.48;;;9.27;;
61840;SDS011;47773;53.174;6.614;2023-07-24T11:30:33;21.38;;;9.40;;
61840;SDS011;47773;53.174;6.614;2023-07-24T11:33:00;29.17;;;10.38;;
61840;SDS011;47773;53.174;6.614;2023-07-24T11:35:28;19.98;;;9.15;;
61840;SDS011;47773;53.174;6.614;2023-07-24T11:37:54;22.33;;;10.25;;
61840;SDS011;47773;53.174;6.614;2023-07-24T11:40:20;25.40;;;9.93;;
61840;SDS011;47773;53.174;6.614;2023-07-24T11:42:55;27.42;;;10.55;;
61840;SDS011;47773;53.174;6.614;2023-07-24T11:45:20;25.38;;;10.38;;
61840;SDS011;47773;53.174;6.614;2023-07-24T11:47:47;33.25;;;10.38;;
61840;SDS011;47773;53.174;6.614;2023-07-24T11:50:14;27.23;;;10.65;;
61840;SDS011;47773;53.174;6.614;2023-07-24T11:52:48;33.60;;;11.50;;
61840;SDS011;47773;53.174;6.614;2023-07-24T11:55:16;34.20;;;12.55;;
61840;SDS011;47773;53.174;6.614;2023-07-24T11:57:59;23.73;;;11.10;;
61840;SDS011;47773;53.174;6.614;2023-07-24T12:00:26;28.88;;;11.90;;
61840;SDS011;47773;53.174;6.614;2023-07-24T12:02:53;31.20;;;12.00;;
61840;SDS011;47773;53.174;6.614;2023-07-24T12:05:24;26.45;;;11.43;;
61840;SDS011;47773;53.174;6.614;2023-07-24T12:07:49;25.20;;;11.55;;
61840;SDS011;47773;53.174;6.614;2023-07-24T12:10:25;26.55;;;12.48;;
61840;SDS011;47773;53.174;6.614;2023-07-24T12:12:54;32.80;;;12.52;;
61840;SDS011;47773;53.174;6.614;2023-07-24T12:15:24;23.58;;;11.52;;
61840;SDS011;47773;53.174;6.614;2023-07-24T12:17:51;25.33;;;11.77;;
61840;SDS011;47773;53.174;6.614;2023-07-24T12:20:17;26.98;;;12.00;;
61840;SDS011;47773;53.174;6.614;2023-07-24T12:22:43;24.73;;;11.07;;
61840;SDS011;47773;53.174;6.614;2023-07-24T12:25:09;22.27;;;10.75;;
61840;SDS011;47773;53.174;6.614;2023-07-24T12:27:35;25.25;;;10.80;;
61840;SDS011;47773;53.174;6.614;2023-07-24T12:30:02;27.90;;;10.98;;
61840;SDS011;47773;53.174;6.614;2023-07-24T12:32:28;21.67;;;10.23;;
61840;SDS011;47773;53.174;6.614;2023-07-24T12:34:54;20.30;;;10.90;;
61840;SDS011;47773;53.174;6.614;2023-07-24T12:37:19;22.10;;;11.20;;
61840;SDS011;47773;53.174;6.614;2023-07-24T12:39:46;19.60;;;9.90;;
61840;SDS011;47773;53.174;6.614;2023-07-24T12:42:13;25.10;;;10.40;;
61840;SDS011;47773;53.174;6.614;2023-07-24T12:44:39;21.98;;;9.98;;
61840;SDS011;47773;53.174;6.614;2023-07-24T12:47:05;30.23;;;11.35;;
61840;SDS011;47773;53.174;6.614;2023-07-24T12:49:32;27.33;;;11.43;;
61840;SDS011;47773;53.174;6.614;2023-07-24T12:51:57;21.90;;;11.52;;
61840;SDS011;47773;53.174;6.614;2023-07-24T12:54:23;29.27;;;11.73;;
61840;SDS011;47773;53.174;6.614;2023-07-24T12:56:49;26.38;;;12.68;;
61840;SDS011;47773;53.174;6.614;2023-07-24T12:59:15;32.75;;;12.77;;
61840;SDS011;47773;53.174;6.614;2023-07-24T13:01:42;26.10;;;12.73;;
61840;SDS011;47773;53.174;6.614;2023-07-24T13:04:07;22.55;;;10.80;;
61840;SDS011;47773;53.174;6.614;2023-07-24T13:06:34;22.05;;;10.05;;
61840;SDS011;47773;53.174;6.614;2023-07-24T13:08:59;20.50;;;9.82;;
61840;SDS011;47773;53.174;6.614;2023-07-24T13:11:25;21.50;;;8.43;;
61840;SDS011;47773;53.174;6.614;2023-07-24T13:13:53;19.30;;;7.45;;
61840;SDS011;47773;53.174;6.614;2023-07-24T13:16:19;14.10;;;5.80;;
61840;SDS011;47773;53.174;6.614;2023-07-24T13:18:44;15.05;;;5.63;;
61840;SDS011;47773;53.174;6.614;2023-07-24T13:21:10;14.55;;;6.53;;
61840;SDS011;47773;53.174;6.614;2023-07-24T13:23:36;15.80;;;6.93;;
61840;SDS011;47773;53.174;6.614;2023-07-24T13:26:02;19.10;;;7.47;;
61840;SDS011;47773;53.174;6.614;2023-07-24T13:28:28;20.63;;;7.38;;
61840;SDS011;47773;53.174;6.614;2023-07-24T13:30:53;16.67;;;7.93;;
61840;SDS011;47773;53.174;6.614;2023-07-24T13:33:19;21.45;;;8.38;;
61840;SDS011;47773;53.174;6.614;2023-07-24T13:35:47;16.95;;;8.60;;
61840;SDS011;47773;53.174;6.614;2023-07-24T13:38:13;16.90;;;8.15;;
61840;SDS011;47773;53.174;6.614;2023-07-24T13:40:39;16.30;;;8.48;;
61840;SDS011;47773;53.174;6.614;2023-07-24T13:43:05;19.45;;;9.45;;
61840;SDS011;47773;53.174;6.614;2023-07-24T13:45:31;18.65;;;8.65;;
61840;SDS011;47773;53.174;6.614;2023-07-24T13:47:57;14.68;;;7.57;;
61840;SDS011;47773;53.174;6.614;2023-07-24T13:50:23;14.10;;;6.72;;
61840;SDS011;47773;53.174;6.614;2023-07-24T13:52:49;18.08;;;5.63;;
61840;SDS011;47773;53.174;6.614;2023-07-24T13:55:15;14.20;;;5.45;;
61840;SDS011;47773;53.174;6.614;2023-07-24T13:57:41;12.95;;;4.15;;
61840;SDS011;47773;53.174;6.614;2023-07-24T14:00:07;11.00;;;4.32;;
61840;SDS011;47773;53.174;6.614;2023-07-24T14:02:33;14.48;;;4.28;;
61840;SDS011;47773;53.174;6.614;2023-07-24T14:04:58;13.43;;;3.40;;
61840;SDS011;47773;53.174;6.614;2023-07-24T14:07:24;19.25;;;4.60;;
61840;SDS011;47773;53.174;6.614;2023-07-24T14:09:50;10.52;;;3.63;;
61840;SDS011;47773;53.174;6.614;2023-07-24T14:12:15;15.07;;;4.40;;
61840;SDS011;47773;53.174;6.614;2023-07-24T14:14:41;15.40;;;4.03;;
61840;SDS011;47773;53.174;6.614;2023-07-24T14:17:07;25.83;;;4.03;;
61840;SDS011;47773;53.174;6.614;2023-07-24T14:19:33;22.50;;;4.60;;
61840;SDS011;47773;53.174;6.614;2023-07-24T14:21:58;12.73;;;4.18;;
61840;SDS011;47773;53.174;6.614;2023-07-24T14:24:25;14.07;;;4.32;;
61840;SDS011;47773;53.174;6.614;2023-07-24T14:26:50;17.17;;;4.55;;
61840;SDS011;47773;53.174;6.614;2023-07-24T14:29:16;25.60;;;4.95;;
61840;SDS011;47773;53.174;6.614;2023-07-24T14:31:42;24.55;;;5.22;;
61840;SDS011;47773;53.174;6.614;2023-07-24T14:34:09;19.00;;;5.00;;
61840;SDS011;47773;53.174;6.614;2023-07-24T14:36:37;22.75;;;4.85;;